createdAt,value
2023-04-05T00:01:39.564Z,63.60
2023-04-05T00:04:08.020Z,63.70
2023-04-05T00:06:37.853Z,63.60
2023-04-05T00:09:07.164Z,63.60
2023-04-05T00:11:35.415Z,63.60
2023-04-05T00:14:03.883Z,63.70
2023-04-05T00:16:33.451Z,63.50
2023-04-05T00:19:02.143Z,63.50
2023-04-05T00:21:30.320Z,63.60
2023-04-05T00:23:58.583Z,63.60
2023-04-05T00:26:26.660Z,63.60
2023-04-05T00:28:54.685Z,63.40
2023-04-05T00:31:22.788Z,63.50
2023-04-05T00:33:52.291Z,63.40
2023-04-05T00:36:37.381Z,63.50
2023-04-05T00:39:05.473Z,63.40
2023-04-05T00:41:33.559Z,63.50
2023-04-05T00:44:03.882Z,63.40
2023-04-05T00:46:32.027Z,63.60
2023-04-05T00:49:01.452Z,63.30
2023-04-05T00:51:32.178Z,63.20
2023-04-05T00:54:03.694Z,63.20
2023-04-05T00:56:31.987Z,63.20
2023-04-05T00:59:00.106Z,63.30
2023-04-05T01:01:28.327Z,63.20
2023-04-05T01:04:00.498Z,63.30
2023-04-05T01:06:58.170Z,63.20
2023-04-05T01:09:38.494Z,63.20
2023-04-05T01:12:08.187Z,63.30
2023-04-05T01:14:47.999Z,63.40
2023-04-05T01:17:22.380Z,63.30
2023-04-05T01:19:53.553Z,63.30
2023-04-05T01:22:41.332Z,63.20
2023-04-05T01:25:19.763Z,63.10
2023-04-05T01:27:58.156Z,63.30
2023-04-05T01:30:29.267Z,63.20
2023-04-05T01:33:03.430Z,63.10
2023-04-05T01:35:34.940Z,63.10
2023-04-05T01:38:04.563Z,63.10
2023-04-05T01:40:32.940Z,62.90
2023-04-05T01:43:03.076Z,63.20
2023-04-05T01:45:32.517Z,63.10
2023-04-05T01:48:01.228Z,63.10
2023-04-05T01:50:29.338Z,62.90
2023-04-05T01:52:57.395Z,62.90
2023-04-05T01:55:25.409Z,62.80
2023-04-05T01:57:55.780Z,62.80
2023-04-05T02:00:23.986Z,62.70
2023-04-05T02:02:56.803Z,62.70
2023-04-05T02:05:24.906Z,62.70
2023-04-05T02:07:52.948Z,62.80
2023-04-05T02:10:25.777Z,62.60
2023-04-05T02:12:53.828Z,62.70
2023-04-05T02:15:21.888Z,62.60
2023-04-05T02:17:56.654Z,62.70
2023-04-05T02:20:25.996Z,62.60
2023-04-05T02:22:54.086Z,62.60
2023-04-05T02:25:22.149Z,62.60
2023-04-05T02:27:50.213Z,62.70
2023-04-05T02:30:18.249Z,62.40
2023-04-05T02:32:47.011Z,62.30
2023-04-05T02:35:17.373Z,62.60
2023-04-05T02:37:45.470Z,62.50
2023-04-05T02:40:15.144Z,62.40
2023-04-05T02:42:43.265Z,62.40
2023-04-05T02:45:11.971Z,62.40
2023-04-05T02:47:40.034Z,62.50
2023-04-05T02:50:09.145Z,62.40
2023-04-05T02:52:38.671Z,62.30
2023-04-05T02:55:07.439Z,62.30
2023-04-05T02:57:35.597Z,62.40
2023-04-05T03:00:05.074Z,62.30
2023-04-05T03:02:33.194Z,62.30
2023-04-05T03:05:02.447Z,62.30
2023-04-05T03:07:30.589Z,62.30
2023-04-05T03:10:00.238Z,62.20
2023-04-05T03:12:28.272Z,62.30
2023-04-05T03:14:56.421Z,62.20
2023-04-05T03:17:24.529Z,62.20
2023-04-05T03:19:52.663Z,62.30
2023-04-05T03:22:21.380Z,62.00
2023-04-05T03:24:49.450Z,62.10
2023-04-05T03:27:21.936Z,62.00
2023-04-05T03:29:50.177Z,62.10
2023-04-05T03:32:18.215Z,62.20
2023-04-05T03:34:49.346Z,62.20
2023-04-05T03:37:17.390Z,62.20
2023-04-05T03:39:45.629Z,62.20
2023-04-05T03:42:13.675Z,62.00
2023-04-05T03:44:43.097Z,62.10
2023-04-05T03:47:11.178Z,62.10
2023-04-05T03:49:39.273Z,62.10
2023-04-05T03:52:07.353Z,62.10
2023-04-05T03:54:35.435Z,62.00
2023-04-05T03:57:03.568Z,61.90
2023-04-05T03:59:31.655Z,61.90
2023-04-05T04:02:03.012Z,61.80
2023-04-05T04:04:31.604Z,62.00
2023-04-05T04:06:59.674Z,61.80
2023-04-05T04:09:29.783Z,61.80
2023-04-05T04:11:57.958Z,61.80
2023-04-05T04:14:25.996Z,61.70
2023-04-05T04:16:54.075Z,61.80
2023-04-05T04:19:23.521Z,61.60
2023-04-05T04:21:52.453Z,61.90
2023-04-05T04:24:20.796Z,61.60
2023-04-05T04:26:48.870Z,61.80
2023-04-05T04:29:17.331Z,61.80
2023-04-05T04:31:48.566Z,61.80
2023-04-05T04:34:18.811Z,61.70
2023-04-05T04:36:48.359Z,61.60
2023-04-05T04:39:16.448Z,61.60
2023-04-05T04:41:47.225Z,61.70
2023-04-05T04:44:15.297Z,61.60
2023-04-05T04:46:43.821Z,61.70
2023-04-05T04:49:13.335Z,61.60
2023-04-05T04:51:58.606Z,61.70
2023-04-05T04:54:27.772Z,61.50
2023-04-05T04:56:55.977Z,61.60
2023-04-05T04:59:24.146Z,61.70
2023-04-05T05:01:52.307Z,61.80
2023-04-05T05:04:20.501Z,61.50
2023-04-05T05:06:48.601Z,61.60
2023-04-05T05:09:18.017Z,61.50
2023-04-05T05:11:49.372Z,61.60
2023-04-05T05:14:17.408Z,61.30
2023-04-05T05:16:45.823Z,61.50
2023-04-05T05:19:13.936Z,61.40
2023-04-05T05:21:42.005Z,61.40
2023-04-05T05:24:10.172Z,61.50
2023-04-05T05:26:39.631Z,61.40
2023-04-05T05:29:07.976Z,61.40
2023-04-05T05:31:36.620Z,61.40
2023-04-05T05:34:07.495Z,61.40
2023-04-05T05:36:36.207Z,61.00
2023-04-05T05:39:05.197Z,61.40
2023-04-05T05:41:33.255Z,61.50
2023-04-05T05:44:02.696Z,61.20
2023-04-05T05:46:31.037Z,61.30
2023-04-05T05:49:01.454Z,61.20
2023-04-05T05:51:29.527Z,61.40
2023-04-05T05:53:57.605Z,61.00
2023-04-05T05:56:25.674Z,61.40
2023-04-05T05:58:53.801Z,60.90
2023-04-05T06:01:28.288Z,60.90
2023-04-05T06:03:56.616Z,60.70
2023-04-05T06:06:25.404Z,61.00
2023-04-05T06:08:53.466Z,60.90
2023-04-05T06:11:23.110Z,61.00
2023-04-05T06:13:52.598Z,60.90
2023-04-05T06:16:22.226Z,60.90
2023-04-05T06:18:50.485Z,60.80
2023-04-05T06:21:18.753Z,60.90
2023-04-05T06:23:49.423Z,61.00
2023-04-05T06:26:19.157Z,61.20
2023-04-05T06:28:48.147Z,60.90
2023-04-05T06:31:17.706Z,61.10
2023-04-05T06:33:47.346Z,61.00
2023-04-05T06:36:19.478Z,61.10
2023-04-05T06:38:47.526Z,61.10
2023-04-05T06:41:15.604Z,60.90
2023-04-05T06:43:43.731Z,60.90
2023-04-05T06:46:14.240Z,61.20
2023-04-05T06:48:44.287Z,60.90
2023-04-05T06:51:14.853Z,61.00
2023-04-05T06:53:43.142Z,61.00
2023-04-05T06:56:11.281Z,61.00
2023-04-05T06:58:39.490Z,60.90
2023-04-05T07:01:07.657Z,60.80
2023-04-05T07:03:36.198Z,60.70
2023-04-05T07:06:04.392Z,60.90
2023-04-05T07:08:34.147Z,60.90
2023-04-05T07:11:02.267Z,60.90
2023-04-05T07:13:30.414Z,61.00
2023-04-05T07:16:01.423Z,60.90
2023-04-05T07:18:30.104Z,60.80
2023-04-05T07:21:00.296Z,60.90
2023-04-05T07:23:28.646Z,60.90
2023-04-05T07:26:04.466Z,61.00
2023-04-05T07:28:33.233Z,61.00
2023-04-05T07:31:01.492Z,60.90
2023-04-05T07:33:31.476Z,60.90
2023-04-05T07:35:59.652Z,61.20
2023-04-05T07:38:31.502Z,61.10
2023-04-05T07:41:01.136Z,61.10
2023-04-05T07:43:29.187Z,61.10
2023-04-05T07:46:02.663Z,61.20
2023-04-05T07:48:30.911Z,61.10
2023-04-05T07:51:04.130Z,61.10
2023-04-05T07:53:32.277Z,61.00
2023-04-05T07:56:06.524Z,61.10
2023-04-05T07:58:34.625Z,61.10
2023-04-05T08:01:07.644Z,61.10
2023-04-05T08:03:36.258Z,61.20
2023-04-05T08:06:22.361Z,61.30
2023-04-05T08:08:55.643Z,61.10
2023-04-05T08:11:26.157Z,61.40
2023-04-05T08:13:55.900Z,61.40
2023-04-05T08:16:23.991Z,61.20
2023-04-05T08:18:52.123Z,61.20
2023-04-05T08:21:20.223Z,61.40
2023-04-05T08:23:50.034Z,61.40
2023-04-05T08:26:18.095Z,61.50
2023-04-05T08:28:47.482Z,61.40
2023-04-05T08:31:15.610Z,61.60
2023-04-05T08:33:43.752Z,61.50
2023-04-05T08:36:12.281Z,61.50
2023-04-05T08:38:43.513Z,61.60
2023-04-05T08:41:16.133Z,61.60
2023-04-05T08:43:54.004Z,61.50
2023-04-05T08:46:22.106Z,61.50
2023-04-05T08:48:50.382Z,61.60
2023-04-05T08:51:20.532Z,61.60
2023-04-05T08:53:48.633Z,61.60
2023-04-05T08:56:16.973Z,61.50
2023-04-05T08:58:50.649Z,61.60
2023-04-05T09:01:18.770Z,61.70
2023-04-05T09:03:46.943Z,61.60
2023-04-05T09:06:20.476Z,61.70
2023-04-05T09:08:48.581Z,61.60
2023-04-05T09:11:19.542Z,61.70
2023-04-05T09:13:48.978Z,61.70
2023-04-05T09:16:19.603Z,61.70
2023-04-05T09:18:49.556Z,61.70
2023-04-05T09:21:18.075Z,61.70
2023-04-05T09:23:55.957Z,61.80
2023-04-05T09:26:24.841Z,61.70
2023-04-05T09:28:56.951Z,61.70
2023-04-05T09:31:31.927Z,61.70
2023-04-05T09:34:01.641Z,61.70
2023-04-05T09:36:29.765Z,61.70
2023-04-05T09:39:16.294Z,61.70
2023-04-05T09:41:44.362Z,61.80
2023-04-05T09:44:13.773Z,61.90
2023-04-05T09:46:44.864Z,61.90
2023-04-05T09:49:14.449Z,61.80
2023-04-05T09:51:42.629Z,61.80
2023-04-05T09:54:11.864Z,61.80
2023-04-05T09:56:40.936Z,61.90
2023-04-05T09:59:10.867Z,61.90
2023-04-05T10:01:41.639Z,62.00
2023-04-05T10:04:13.762Z,62.00
2023-04-05T10:06:42.576Z,62.10
2023-04-05T10:09:11.605Z,62.00
2023-04-05T10:11:39.964Z,62.00
2023-04-05T10:14:13.630Z,62.00
2023-04-05T10:16:47.409Z,62.10
2023-04-05T10:19:17.939Z,62.10
2023-04-05T10:21:46.016Z,62.10
2023-04-05T10:24:36.715Z,62.20
2023-04-05T10:27:10.183Z,62.10
2023-04-05T10:29:43.284Z,62.30
2023-04-05T10:32:15.221Z,62.30
2023-04-05T10:34:45.133Z,62.20
2023-04-05T10:37:15.110Z,62.30
2023-04-05T10:39:46.677Z,62.40
2023-04-05T10:42:18.194Z,62.30
2023-04-05T10:44:47.007Z,62.30
2023-04-05T10:47:17.373Z,62.30
2023-04-05T10:49:46.832Z,62.40
2023-04-05T10:52:14.963Z,62.40
2023-04-05T10:54:43.028Z,62.30
2023-04-05T10:57:11.369Z,62.40
2023-04-05T10:59:42.938Z,62.40
2023-04-05T11:02:11.556Z,62.40
2023-04-05T11:04:45.274Z,62.50
2023-04-05T11:07:14.364Z,62.50
2023-04-05T11:09:52.682Z,62.50
2023-04-05T11:12:20.798Z,62.50
2023-04-05T11:14:48.829Z,62.50
2023-04-05T11:17:26.425Z,62.50
2023-04-05T11:19:59.393Z,62.60
2023-04-05T11:22:29.069Z,62.50
2023-04-05T11:24:59.202Z,62.60
2023-04-05T11:27:28.190Z,62.60
2023-04-05T11:29:56.568Z,62.50
2023-04-05T11:32:24.721Z,62.60
2023-04-05T11:35:03.730Z,62.60
2023-04-05T11:37:58.346Z,62.60
2023-04-05T11:40:28.153Z,62.60
2023-04-05T11:43:07.594Z,62.70
2023-04-05T11:45:37.174Z,62.60
2023-04-05T11:48:08.731Z,62.70
2023-04-05T11:50:39.231Z,62.60
2023-04-05T11:53:14.070Z,62.60
2023-04-05T11:55:44.571Z,62.70
2023-04-05T11:58:13.971Z,62.70
2023-04-05T12:00:42.505Z,62.70
2023-04-05T12:03:13.510Z,62.70
2023-04-05T12:05:50.565Z,62.70
2023-04-05T12:08:18.980Z,62.70
2023-04-05T12:10:54.372Z,62.80
2023-04-05T12:13:28.210Z,62.80
2023-04-05T12:15:58.091Z,62.90
2023-04-05T12:18:26.559Z,62.90
2023-04-05T12:20:56.032Z,62.90
2023-04-05T12:23:24.243Z,62.90
2023-04-05T12:25:54.188Z,62.90
2023-04-05T12:28:22.234Z,63.10
2023-04-05T12:30:50.435Z,62.90
2023-04-05T12:33:27.879Z,63.10
2023-04-05T12:35:57.361Z,63.10
2023-04-05T12:38:27.152Z,63.10
2023-04-05T12:40:55.330Z,63.10
2023-04-05T12:43:23.409Z,63.10
2023-04-05T12:45:56.516Z,63.10
2023-04-05T12:48:26.105Z,63.20
2023-04-05T12:50:55.152Z,63.20
2023-04-05T12:53:28.463Z,63.20
2023-04-05T12:55:56.907Z,63.20
2023-04-05T12:58:28.834Z,63.20
2023-04-05T13:00:56.882Z,63.20
2023-04-05T13:03:26.676Z,63.10
2023-04-05T13:05:54.801Z,63.20
2023-04-05T13:08:24.371Z,63.20
2023-04-05T13:10:52.468Z,63.10
2023-04-05T13:13:21.671Z,63.20
2023-04-05T13:15:52.072Z,63.20
2023-04-05T13:18:20.746Z,63.10
2023-04-05T13:20:48.884Z,63.10
2023-04-05T13:23:16.978Z,63.10
2023-04-05T13:25:46.475Z,63.10
2023-04-05T13:28:14.716Z,63.20
2023-04-05T13:30:42.781Z,63.20
2023-04-05T13:33:10.956Z,63.20
2023-04-05T13:35:49.828Z,63.20
2023-04-05T13:38:17.898Z,63.10
2023-04-05T13:40:47.482Z,63.20
2023-04-05T13:43:15.610Z,63.10
2023-04-05T13:45:43.828Z,63.20
2023-04-05T13:48:12.108Z,63.10
2023-04-05T13:50:40.486Z,63.20
2023-04-05T13:53:09.077Z,63.20
2023-04-05T13:55:38.069Z,63.10
2023-04-05T13:58:07.498Z,63.10
2023-04-05T14:00:35.556Z,63.10
2023-04-05T14:03:04.135Z,63.10
2023-04-05T14:05:37.825Z,63.10
2023-04-05T14:08:05.990Z,62.90
2023-04-05T14:10:34.023Z,62.90
2023-04-05T14:13:02.116Z,62.80
2023-04-05T14:15:31.864Z,62.90
2023-04-05T14:17:59.935Z,62.90
2023-04-05T14:20:28.014Z,62.90
2023-04-05T14:22:56.167Z,63.10
2023-04-05T14:25:25.851Z,63.10
2023-04-05T14:27:53.896Z,63.10
2023-04-05T14:30:21.989Z,63.10
2023-04-05T14:32:51.467Z,63.10
2023-04-05T14:35:19.623Z,63.20
2023-04-05T14:37:47.715Z,63.10
2023-04-05T14:40:16.140Z,63.10
2023-04-05T14:42:49.395Z,63.10
2023-04-05T14:45:18.747Z,62.90
2023-04-05T14:47:46.920Z,62.90
2023-04-05T14:50:16.535Z,62.90
2023-04-05T14:52:45.429Z,62.90
2023-04-05T14:55:13.534Z,62.90
2023-04-05T14:57:41.825Z,62.90
2023-04-05T15:00:14.838Z,62.80
2023-04-05T15:02:42.967Z,62.90
2023-04-05T15:05:11.415Z,62.90
2023-04-05T15:07:40.876Z,62.90
2023-04-05T15:10:09.584Z,62.90
2023-04-05T15:12:37.658Z,62.90
2023-04-05T15:15:06.770Z,63.10
2023-04-05T15:17:34.871Z,63.10
2023-04-05T15:20:02.976Z,63.10
2023-04-05T15:22:31.300Z,63.20
2023-04-05T15:25:00.953Z,63.10
2023-04-05T15:27:29.114Z,63.10
2023-04-05T15:29:57.193Z,63.20
2023-04-05T15:32:25.298Z,63.20
2023-04-05T15:34:53.402Z,63.30
2023-04-05T15:37:21.689Z,63.30
2023-04-05T15:39:49.748Z,63.30
2023-04-05T15:42:21.753Z,63.30
2023-04-05T15:44:49.854Z,63.30
2023-04-05T15:47:17.914Z,63.40
2023-04-05T15:49:46.072Z,63.40
2023-04-05T15:52:15.495Z,63.40
2023-04-05T15:54:44.400Z,63.40
2023-04-05T15:57:12.531Z,63.30
2023-04-05T15:59:41.988Z,63.40
2023-04-05T16:02:10.520Z,63.40
2023-04-05T16:04:39.365Z,63.40
2023-04-05T16:07:09.308Z,63.40
2023-04-05T16:09:37.383Z,63.40
2023-04-05T16:12:05.511Z,63.50
2023-04-05T16:14:33.909Z,63.40
2023-04-05T16:17:03.382Z,63.40
2023-04-05T16:19:31.584Z,63.40
2023-04-05T16:22:00.121Z,63.40
2023-04-05T16:24:28.310Z,63.50
2023-04-05T16:26:56.861Z,63.40
2023-04-05T16:29:25.115Z,63.50
2023-04-05T16:31:53.258Z,63.50
2023-04-05T16:34:27.589Z,63.40
2023-04-05T16:36:55.667Z,63.30
2023-04-05T16:39:23.740Z,63.40
2023-04-05T16:41:51.789Z,63.30
2023-04-05T16:44:19.853Z,63.30
2023-04-05T16:46:47.904Z,63.40
2023-04-05T16:49:16.132Z,63.30
2023-04-05T16:51:46.239Z,63.40
2023-04-05T16:54:15.307Z,63.40
2023-04-05T16:56:43.339Z,63.40
2023-04-05T16:59:11.621Z,63.40
2023-04-05T17:01:39.898Z,63.40
2023-04-05T17:04:08.070Z,63.40
2023-04-05T17:06:36.142Z,63.40
2023-04-05T17:09:05.761Z,63.40
2023-04-05T17:11:33.993Z,63.40
2023-04-05T17:14:02.055Z,63.40
2023-04-05T17:16:30.116Z,63.40
2023-04-05T17:18:58.178Z,63.40
2023-04-05T17:21:26.462Z,63.40
2023-04-05T17:23:54.544Z,63.40
2023-04-05T17:26:24.615Z,63.40
2023-04-05T17:28:52.748Z,63.40
2023-04-05T17:31:26.069Z,63.40
2023-04-05T17:33:54.141Z,63.40
2023-04-05T17:36:22.240Z,63.40
2023-04-05T17:38:50.423Z,63.50
2023-04-05T17:41:18.487Z,63.50
2023-04-05T17:43:47.932Z,63.50
2023-04-05T17:46:27.380Z,63.40
2023-04-05T17:49:02.546Z,63.40
2023-04-05T17:51:31.681Z,63.40
2023-04-05T17:53:59.783Z,63.40
2023-04-05T17:56:27.918Z,63.50
2023-04-05T17:58:57.380Z,63.50
2023-04-05T18:01:26.199Z,63.50
2023-04-05T18:03:54.357Z,63.50
2023-04-05T18:06:22.822Z,63.50
2023-04-05T18:08:56.061Z,63.50
2023-04-05T18:11:25.171Z,63.50
2023-04-05T18:13:53.193Z,63.50
2023-04-05T18:16:22.829Z,63.60
2023-04-05T18:18:50.942Z,63.50
2023-04-05T18:21:19.057Z,63.50
2023-04-05T18:23:47.128Z,63.50
2023-04-05T18:26:15.216Z,63.60
2023-04-05T18:28:43.306Z,63.50
2023-04-05T18:31:11.896Z,63.50
2023-04-05T18:33:41.600Z,63.60
2023-04-05T18:36:09.751Z,63.50
2023-04-05T18:38:37.868Z,63.60
2023-04-05T18:41:07.165Z,63.60
2023-04-05T18:43:35.299Z,63.60
2023-04-05T18:46:03.473Z,63.60
2023-04-05T18:48:31.541Z,63.60
2023-04-05T18:51:01.102Z,63.60
2023-04-05T18:53:29.173Z,63.60
2023-04-05T18:55:57.226Z,63.60
2023-04-05T18:58:25.503Z,63.60
2023-04-05T19:00:53.613Z,63.60
2023-04-05T19:03:21.825Z,63.60
2023-04-05T19:05:51.060Z,63.60
2023-04-05T19:08:20.787Z,63.60
2023-04-05T19:10:48.878Z,63.60
2023-04-05T19:13:16.956Z,63.70
2023-04-05T19:15:50.093Z,63.60
2023-04-05T19:18:19.648Z,63.60
2023-04-05T19:20:47.699Z,63.70
2023-04-05T19:23:15.759Z,63.60
2023-04-05T19:25:45.661Z,63.60
2023-04-05T19:28:13.737Z,63.60
2023-04-05T19:30:41.769Z,63.60
2023-04-05T19:33:09.947Z,63.60
2023-04-05T19:35:38.086Z,63.60
2023-04-05T19:38:06.295Z,63.60
2023-04-05T19:40:34.443Z,63.60
2023-04-05T19:43:03.908Z,63.60
2023-04-05T19:45:32.285Z,63.60
2023-04-05T19:48:01.430Z,63.60
2023-04-05T19:50:50.472Z,63.60
2023-04-05T19:53:36.787Z,63.60
2023-04-05T19:56:05.598Z,63.50
2023-04-05T19:58:35.049Z,63.60
2023-04-05T20:01:03.089Z,63.60
2023-04-05T20:03:32.246Z,63.60
2023-04-05T20:06:10.743Z,63.50
2023-04-05T20:08:39.586Z,63.60
2023-04-05T20:11:12.350Z,63.60
2023-04-05T20:13:43.440Z,63.60
2023-04-05T20:16:12.940Z,63.60
2023-04-05T20:18:41.066Z,63.60
2023-04-05T20:21:09.125Z,63.60
2023-04-05T20:23:37.195Z,63.60
2023-04-05T20:26:08.127Z,63.50
2023-04-05T20:28:38.244Z,63.50
2023-04-05T20:31:11.422Z,63.50
2023-04-05T20:33:49.542Z,63.50
2023-04-05T20:36:19.097Z,63.50
2023-04-05T20:38:47.442Z,63.50
2023-04-05T20:41:32.617Z,63.50
2023-04-05T20:44:02.181Z,63.40
2023-04-05T20:46:32.376Z,63.50
2023-04-05T20:49:00.745Z,63.50
2023-04-05T20:51:28.801Z,63.60
2023-04-05T20:54:02.273Z,63.50
2023-04-05T20:56:30.386Z,63.50
2023-04-05T20:58:58.479Z,63.40
2023-04-05T21:01:27.194Z,63.40
2023-04-05T21:03:56.803Z,63.40
2023-04-05T21:06:24.933Z,63.50
2023-04-05T21:08:52.965Z,63.40
2023-04-05T21:11:21.545Z,63.40
2023-04-05T21:13:49.940Z,63.40
2023-04-05T21:16:18.426Z,63.40
2023-04-05T21:18:57.795Z,63.40
2023-04-05T21:21:26.415Z,63.40
2023-04-05T21:23:54.528Z,63.40
2023-04-05T21:26:22.701Z,63.40
2023-04-05T21:29:14.572Z,63.40
2023-04-05T21:31:42.668Z,63.30
2023-04-05T21:34:12.168Z,63.30
2023-04-05T21:36:40.280Z,63.40
2023-04-05T21:39:08.538Z,63.30
2023-04-05T21:41:36.840Z,63.30
2023-04-05T21:44:08.209Z,63.30
2023-04-05T21:46:36.486Z,63.30
2023-04-05T21:49:04.928Z,63.30
2023-04-05T21:51:34.398Z,63.30
2023-04-05T21:54:02.465Z,63.30
2023-04-05T21:56:30.522Z,63.20
2023-04-05T21:58:58.599Z,63.30
2023-04-05T22:01:26.713Z,63.20
2023-04-05T22:03:54.733Z,63.20
2023-04-05T22:06:22.768Z,63.20
2023-04-05T22:08:53.863Z,63.20
2023-04-05T22:11:23.764Z,63.20
2023-04-05T22:13:51.999Z,63.20
2023-04-05T22:16:20.222Z,63.20
2023-04-05T22:18:50.228Z,63.20
2023-04-05T22:21:18.354Z,63.00
2023-04-05T22:23:46.665Z,63.00
2023-04-05T22:26:22.094Z,63.20
2023-04-05T22:28:50.277Z,63.00
2023-04-05T22:31:26.339Z,63.10
2023-04-05T22:33:54.406Z,63.00
2023-04-05T22:36:22.454Z,62.90
2023-04-05T22:38:52.200Z,62.90
2023-04-05T22:41:23.094Z,62.90
2023-04-05T22:43:51.136Z,62.90
2023-04-05T22:46:19.685Z,62.80
2023-04-05T22:48:48.333Z,62.70
2023-04-05T22:51:16.387Z,62.80
2023-04-05T22:53:44.502Z,62.80
2023-04-05T22:56:12.563Z,62.80
2023-04-05T22:58:42.001Z,62.70
2023-04-05T23:01:10.104Z,62.70
2023-04-05T23:03:38.188Z,62.80
2023-04-05T23:06:06.571Z,62.50
2023-04-05T23:08:35.594Z,62.70
2023-04-05T23:11:03.700Z,62.70
2023-04-05T23:13:31.786Z,62.60
2023-04-05T23:16:01.256Z,62.50
2023-04-05T23:18:29.344Z,62.30
2023-04-05T23:20:57.385Z,62.40
2023-04-05T23:23:25.904Z,62.60
2023-04-05T23:25:53.970Z,62.60
2023-04-05T23:28:22.026Z,62.20
2023-04-05T23:30:50.172Z,62.40
2023-04-05T23:33:19.617Z,62.30
2023-04-05T23:35:47.661Z,62.30
2023-04-05T23:38:15.738Z,62.40
2023-04-05T23:40:50.287Z,62.40
2023-04-05T23:43:18.354Z,62.20
2023-04-05T23:45:46.414Z,62.40
2023-04-05T23:48:27.717Z,62.30
2023-04-05T23:50:56.291Z,62.10
2023-04-05T23:53:24.351Z,62.00
2023-04-05T23:55:53.441Z,62.30
2023-04-05T23:58:21.749Z,61.90
